EGJA/ACI METAR and TAF weather

Enter ICAO airport designator
Station Type Date Time Source
EGJA METAR 2022/11/30 11:20 UTC NOAA

EGJA 301120Z 12009KT 9999 BKN008 07/05 Q1023


Station Type Date Time Source
EGJA Decoded METAR 2022/11/30 11:20 UTC NOAA

Alderney / Channel Island, United Kingdom (EGJA) 49-43N 002-12W
Nov 30, 2022 - 06:20 AM EST / 2022.11.30 1120 UTC
Wind: from the ESE (120 degrees) at 10 MPH (9 KT):0
Visibility: greater than 7 mile(s):0
Sky conditions: mostly cloudy
Temperature: 44 F (7 C)
Dew Point: 41 F (5 C)
Relative Humidity: 87%
Pressure (altimeter): 30.21 in. Hg (1023 hPa)
ob: EGJA 301120Z 12009KT 9999 BKN008 07/05 Q1023
cycle: 11

Station Type Date Time Source
EGJA TAF UTC NOAA

Error!

Example: see airport list